sensor_id;sensor_type;location;lat;lon;timestamp;P1;durP1;ratioP1;P2;durP2;ratioP2
23402;SDS011;11874;48.228;11.684;2023-02-11T07:34:45;14.18;;;6.93;;
23402;SDS011;11874;48.228;11.684;2023-02-11T07:37:13;13.30;;;7.68;;
23402;SDS011;11874;48.228;11.684;2023-02-11T07:39:41;12.82;;;7.68;;
23402;SDS011;11874;48.228;11.684;2023-02-11T07:42:09;13.40;;;7.45;;
23402;SDS011;11874;48.228;11.684;2023-02-11T07:44:36;14.43;;;8.30;;
23402;SDS011;11874;48.228;11.684;2023-02-11T07:47:04;13.38;;;8.55;;
23402;SDS011;11874;48.228;11.684;2023-02-11T07:49:32;15.10;;;8.18;;
23402;SDS011;11874;48.228;11.684;2023-02-11T07:52:02;16.25;;;9.07;;
23402;SDS011;11874;48.228;11.684;2023-02-11T07:54:29;14.88;;;8.25;;
23402;SDS011;11874;48.228;11.684;2023-02-11T07:56:57;15.57;;;7.95;;
23402;SDS011;11874;48.228;11.684;2023-02-11T07:59:25;13.73;;;7.97;;
23402;SDS011;11874;48.228;11.684;2023-02-11T08:01:53;17.02;;;8.48;;
23402;SDS011;11874;48.228;11.684;2023-02-11T08:04:21;13.15;;;7.40;;
23402;SDS011;11874;48.228;11.684;2023-02-11T08:06:49;16.85;;;9.02;;
23402;SDS011;11874;48.228;11.684;2023-02-11T08:09:19;12.82;;;7.53;;
23402;SDS011;11874;48.228;11.684;2023-02-11T08:11:47;14.35;;;8.85;;
23402;SDS011;11874;48.228;11.684;2023-02-11T08:14:15;15.10;;;8.90;;
23402;SDS011;11874;48.228;11.684;2023-02-11T08:16:43;19.55;;;8.35;;
23402;SDS011;11874;48.228;11.684;2023-02-11T08:19:11;15.40;;;9.30;;
23402;SDS011;11874;48.228;11.684;2023-02-11T14:49:37;20.95;;;12.98;;
23402;SDS011;11874;48.228;11.684;2023-02-11T14:52:12;21.38;;;12.93;;
23402;SDS011;11874;48.228;11.684;2023-02-11T14:54:46;23.02;;;13.00;;
23402;SDS011;11874;48.228;11.684;2023-02-11T14:57:16;20.80;;;12.95;;
23402;SDS011;11874;48.228;11.684;2023-02-11T14:59:54;23.58;;;13.65;;
23402;SDS011;11874;48.228;11.684;2023-02-11T15:02:28;23.15;;;12.40;;
23402;SDS011;11874;48.228;11.684;2023-02-11T15:07:43;20.17;;;12.27;;
23402;SDS011;11874;48.228;11.684;2023-02-11T15:10:18;22.83;;;13.43;;
23402;SDS011;11874;48.228;11.684;2023-02-11T15:12:52;21.92;;;12.90;;
23402;SDS011;11874;48.228;11.684;2023-02-11T15:15:21;25.23;;;13.75;;
23402;SDS011;11874;48.228;11.684;2023-02-11T15:17:49;23.63;;;12.48;;
23402;SDS011;11874;48.228;11.684;2023-02-11T15:20:21;20.58;;;13.52;;
23402;SDS011;11874;48.228;11.684;2023-02-11T15:22:54;20.85;;;13.18;;
23402;SDS011;11874;48.228;11.684;2023-02-11T15:25:25;21.20;;;12.68;;
23402;SDS011;11874;48.228;11.684;2023-02-11T15:27:59;19.13;;;12.30;;
23402;SDS011;11874;48.228;11.684;2023-02-11T15:30:28;21.73;;;12.43;;
23402;SDS011;11874;48.228;11.684;2023-02-11T15:33:00;22.30;;;13.15;;
23402;SDS011;11874;48.228;11.684;2023-02-11T15:35:31;17.90;;;11.18;;
23402;SDS011;11874;48.228;11.684;2023-02-11T15:38:01;19.42;;;12.07;;
23402;SDS011;11874;48.228;11.684;2023-02-11T15:40:31;22.10;;;12.57;;
23402;SDS011;11874;48.228;11.684;2023-02-11T15:43:00;19.27;;;12.05;;
23402;SDS011;11874;48.228;11.684;2023-02-11T15:45:29;21.48;;;13.07;;
23402;SDS011;11874;48.228;11.684;2023-02-11T15:48:03;17.55;;;11.52;;
23402;SDS011;11874;48.228;11.684;2023-02-11T15:50:35;17.25;;;10.95;;
23402;SDS011;11874;48.228;11.684;2023-02-11T15:53:14;21.92;;;11.07;;
23402;SDS011;11874;48.228;11.684;2023-02-11T15:55:49;14.40;;;9.50;;
23402;SDS011;11874;48.228;11.684;2023-02-11T15:58:19;16.00;;;10.13;;
23402;SDS011;11874;48.228;11.684;2023-02-11T16:00:49;19.77;;;9.73;;
23402;SDS011;11874;48.228;11.684;2023-02-11T16:03:20;16.50;;;10.00;;
23402;SDS011;11874;48.228;11.684;2023-02-11T16:05:51;15.65;;;9.30;;
23402;SDS011;11874;48.228;11.684;2023-02-11T16:08:22;18.43;;;9.77;;
23402;SDS011;11874;48.228;11.684;2023-02-11T16:10:55;15.07;;;9.40;;
23402;SDS011;11874;48.228;11.684;2023-02-11T16:13:25;14.95;;;9.02;;
23402;SDS011;11874;48.228;11.684;2023-02-11T16:15:55;14.20;;;9.52;;
23402;SDS011;11874;48.228;11.684;2023-02-11T16:21:06;15.32;;;10.05;;
23402;SDS011;11874;48.228;11.684;2023-02-11T16:23:41;15.90;;;10.30;;
23402;SDS011;11874;48.228;11.684;2023-02-11T16:26:19;17.60;;;11.15;;
23402;SDS011;11874;48.228;11.684;2023-02-11T16:28:50;16.40;;;10.50;;
23402;SDS011;11874;48.228;11.684;2023-02-11T16:31:19;16.58;;;10.48;;
23402;SDS011;11874;48.228;11.684;2023-02-11T16:33:47;16.42;;;9.77;;
23402;SDS011;11874;48.228;11.684;2023-02-11T16:36:16;17.10;;;10.52;;
23402;SDS011;11874;48.228;11.684;2023-02-11T16:38:44;18.15;;;10.57;;
23402;SDS011;11874;48.228;11.684;2023-02-11T16:41:12;17.00;;;10.63;;
23402;SDS011;11874;48.228;11.684;2023-02-11T16:43:40;19.92;;;10.88;;
23402;SDS011;11874;48.228;11.684;2023-02-11T16:46:09;16.75;;;10.55;;
23402;SDS011;11874;48.228;11.684;2023-02-11T16:51:09;12.75;;;9.75;;
23402;SDS011;11874;48.228;11.684;2023-02-11T16:53:39;17.25;;;10.40;;
23402;SDS011;11874;48.228;11.684;2023-02-11T16:56:10;17.13;;;10.07;;
23402;SDS011;11874;48.228;11.684;2023-02-11T16:58:40;17.85;;;10.07;;
23402;SDS011;11874;48.228;11.684;2023-02-11T17:01:08;20.15;;;10.38;;
23402;SDS011;11874;48.228;11.684;2023-02-11T17:03:39;17.25;;;10.80;;
23402;SDS011;11874;48.228;11.684;2023-02-11T17:06:09;15.20;;;10.25;;
23402;SDS011;11874;48.228;11.684;2023-02-11T17:08:38;14.35;;;9.30;;
23402;SDS011;11874;48.228;11.684;2023-02-11T17:11:07;15.48;;;10.55;;
23402;SDS011;11874;48.228;11.684;2023-02-11T17:13:34;18.02;;;10.63;;
23402;SDS011;11874;48.228;11.684;2023-02-11T17:16:04;17.63;;;11.10;;
23402;SDS011;11874;48.228;11.684;2023-02-11T17:18:34;19.95;;;10.75;;
23402;SDS011;11874;48.228;11.684;2023-02-11T17:21:04;20.17;;;10.70;;
23402;SDS011;11874;48.228;11.684;2023-02-11T17:23:32;20.42;;;12.48;;
23402;SDS011;11874;48.228;11.684;2023-02-11T17:26:02;18.70;;;11.80;;
23402;SDS011;11874;48.228;11.684;2023-02-11T17:28:30;19.40;;;11.63;;
23402;SDS011;11874;48.228;11.684;2023-02-11T17:30:58;20.13;;;11.55;;
23402;SDS011;11874;48.228;11.684;2023-02-11T17:33:26;20.10;;;11.88;;
23402;SDS011;11874;48.228;11.684;2023-02-11T17:35:54;19.02;;;11.45;;
23402;SDS011;11874;48.228;11.684;2023-02-11T17:38:22;17.83;;;10.63;;
23402;SDS011;11874;48.228;11.684;2023-02-11T17:40:56;17.48;;;11.35;;
23402;SDS011;11874;48.228;11.684;2023-02-11T17:43:26;20.80;;;12.10;;
23402;SDS011;11874;48.228;11.684;2023-02-11T17:45:54;18.65;;;10.75;;
23402;SDS011;11874;48.228;11.684;2023-02-11T17:48:22;18.50;;;11.13;;
23402;SDS011;11874;48.228;11.684;2023-02-11T17:50:50;18.77;;;11.52;;
23402;SDS011;11874;48.228;11.684;2023-02-11T17:53:17;18.90;;;11.18;;
23402;SDS011;11874;48.228;11.684;2023-02-11T17:55:45;17.73;;;12.23;;
23402;SDS011;11874;48.228;11.684;2023-02-11T17:58:13;19.48;;;11.32;;
23402;SDS011;11874;48.228;11.684;2023-02-11T18:00:43;19.10;;;11.43;;
23402;SDS011;11874;48.228;11.684;2023-02-11T18:03:11;21.15;;;13.35;;
23402;SDS011;11874;48.228;11.684;2023-02-11T18:05:39;19.58;;;11.20;;
23402;SDS011;11874;48.228;11.684;2023-02-11T18:08:07;20.58;;;12.38;;
23402;SDS011;11874;48.228;11.684;2023-02-11T18:10:35;18.42;;;11.05;;
23402;SDS011;11874;48.228;11.684;2023-02-11T18:13:03;19.90;;;12.70;;
23402;SDS011;11874;48.228;11.684;2023-02-11T18:15:32;23.25;;;13.02;;
23402;SDS011;11874;48.228;11.684;2023-02-11T18:18:01;20.90;;;12.27;;
23402;SDS011;11874;48.228;11.684;2023-02-11T18:20:29;25.33;;;13.23;;
23402;SDS011;11874;48.228;11.684;2023-02-11T18:22:57;21.73;;;13.10;;
23402;SDS011;11874;48.228;11.684;2023-02-11T18:25:24;23.80;;;12.98;;
23402;SDS011;11874;48.228;11.684;2023-02-11T18:27:52;23.13;;;14.30;;
23402;SDS011;11874;48.228;11.684;2023-02-11T18:30:20;23.38;;;13.57;;
23402;SDS011;11874;48.228;11.684;2023-02-11T18:32:51;22.10;;;13.77;;
23402;SDS011;11874;48.228;11.684;2023-02-11T18:35:21;32.63;;;17.30;;
23402;SDS011;11874;48.228;11.684;2023-02-11T18:37:50;34.45;;;18.55;;
23402;SDS011;11874;48.228;11.684;2023-02-11T18:40:18;27.00;;;16.17;;
23402;SDS011;11874;48.228;11.684;2023-02-11T18:42:46;25.27;;;15.43;;
23402;SDS011;11874;48.228;11.684;2023-02-11T18:45:14;24.90;;;14.23;;
23402;SDS011;11874;48.228;11.684;2023-02-11T18:47:42;23.80;;;13.90;;
23402;SDS011;11874;48.228;11.684;2023-02-11T18:50:10;22.33;;;13.63;;
23402;SDS011;11874;48.228;11.684;2023-02-11T18:52:42;19.17;;;12.65;;
23402;SDS011;11874;48.228;11.684;2023-02-11T18:55:10;20.88;;;13.10;;
23402;SDS011;11874;48.228;11.684;2023-02-11T18:57:37;21.60;;;12.63;;
23402;SDS011;11874;48.228;11.684;2023-02-11T19:00:06;19.95;;;12.18;;
23402;SDS011;11874;48.228;11.684;2023-02-11T19:02:36;22.63;;;12.88;;
23402;SDS011;11874;48.228;11.684;2023-02-11T19:05:04;20.27;;;12.45;;
23402;SDS011;11874;48.228;11.684;2023-02-11T19:07:32;18.70;;;11.70;;
23402;SDS011;11874;48.228;11.684;2023-02-11T19:10:02;20.05;;;12.25;;
23402;SDS011;11874;48.228;11.684;2023-02-11T19:12:30;21.90;;;13.27;;
23402;SDS011;11874;48.228;11.684;2023-02-11T19:14:58;18.98;;;12.63;;
23402;SDS011;11874;48.228;11.684;2023-02-11T19:17:26;21.15;;;12.30;;
23402;SDS011;11874;48.228;11.684;2023-02-11T19:19:54;23.45;;;13.07;;
23402;SDS011;11874;48.228;11.684;2023-02-11T19:22:22;22.60;;;13.18;;
23402;SDS011;11874;48.228;11.684;2023-02-11T19:24:50;22.73;;;13.32;;
23402;SDS011;11874;48.228;11.684;2023-02-11T19:27:19;21.08;;;12.63;;
23402;SDS011;11874;48.228;11.684;2023-02-11T19:29:47;21.17;;;13.15;;
23402;SDS011;11874;48.228;11.684;2023-02-11T19:32:15;25.63;;;14.50;;
23402;SDS011;11874;48.228;11.684;2023-02-11T19:34:43;20.70;;;13.20;;
23402;SDS011;11874;48.228;11.684;2023-02-11T19:37:11;23.50;;;13.73;;
23402;SDS011;11874;48.228;11.684;2023-02-11T19:39:39;25.15;;;13.55;;
23402;SDS011;11874;48.228;11.684;2023-02-11T19:42:07;19.90;;;12.55;;
23402;SDS011;11874;48.228;11.684;2023-02-11T19:44:37;19.85;;;13.25;;
23402;SDS011;11874;48.228;11.684;2023-02-11T19:47:04;23.00;;;13.13;;
23402;SDS011;11874;48.228;11.684;2023-02-11T19:49:32;20.98;;;12.98;;
23402;SDS011;11874;48.228;11.684;2023-02-11T19:52:00;23.23;;;13.35;;
23402;SDS011;11874;48.228;11.684;2023-02-11T19:54:28;19.20;;;13.18;;
23402;SDS011;11874;48.228;11.684;2023-02-11T19:56:56;22.45;;;13.27;;
23402;SDS011;11874;48.228;11.684;2023-02-11T19:59:24;20.63;;;13.70;;
23402;SDS011;11874;48.228;11.684;2023-02-11T20:01:54;21.92;;;12.68;;
23402;SDS011;11874;48.228;11.684;2023-02-11T20:04:22;24.15;;;14.23;;
23402;SDS011;11874;48.228;11.684;2023-02-11T20:06:50;24.15;;;14.68;;
23402;SDS011;11874;48.228;11.684;2023-02-11T20:09:18;20.02;;;13.70;;
23402;SDS011;11874;48.228;11.684;2023-02-11T20:11:46;24.30;;;14.13;;
23402;SDS011;11874;48.228;11.684;2023-02-11T20:14:15;21.05;;;14.23;;
23402;SDS011;11874;48.228;11.684;2023-02-11T20:16:43;20.00;;;13.23;;
23402;SDS011;11874;48.228;11.684;2023-02-11T20:19:17;22.77;;;12.82;;
23402;SDS011;11874;48.228;11.684;2023-02-11T20:21:47;15.80;;;9.88;;
23402;SDS011;11874;48.228;11.684;2023-02-11T20:24:17;21.05;;;13.25;;
23402;SDS011;11874;48.228;11.684;2023-02-11T20:26:46;22.77;;;13.63;;
23402;SDS011;11874;48.228;11.684;2023-02-11T20:29:15;23.73;;;14.30;;
23402;SDS011;11874;48.228;11.684;2023-02-11T20:31:44;21.65;;;13.63;;
23402;SDS011;11874;48.228;11.684;2023-02-11T20:34:12;23.23;;;13.90;;
23402;SDS011;11874;48.228;11.684;2023-02-11T20:36:44;25.10;;;14.52;;
23402;SDS011;11874;48.228;11.684;2023-02-11T20:39:17;25.10;;;15.45;;
23402;SDS011;11874;48.228;11.684;2023-02-11T20:41:47;24.05;;;14.60;;
23402;SDS011;11874;48.228;11.684;2023-02-11T20:44:15;25.48;;;15.65;;
23402;SDS011;11874;48.228;11.684;2023-02-11T20:46:44;26.65;;;15.68;;
23402;SDS011;11874;48.228;11.684;2023-02-11T20:49:13;24.92;;;16.15;;
23402;SDS011;11874;48.228;11.684;2023-02-11T20:51:42;23.88;;;14.48;;
23402;SDS011;11874;48.228;11.684;2023-02-11T20:54:12;25.58;;;14.55;;
23402;SDS011;11874;48.228;11.684;2023-02-11T20:56:40;24.63;;;15.15;;
23402;SDS011;11874;48.228;11.684;2023-02-11T20:59:12;22.77;;;14.60;;
23402;SDS011;11874;48.228;11.684;2023-02-11T21:01:43;24.05;;;15.18;;
23402;SDS011;11874;48.228;11.684;2023-02-11T21:04:13;29.42;;;15.55;;
23402;SDS011;11874;48.228;11.684;2023-02-11T21:06:44;21.15;;;13.77;;
23402;SDS011;11874;48.228;11.684;2023-02-11T21:09:14;23.52;;;14.57;;
23402;SDS011;11874;48.228;11.684;2023-02-11T21:11:45;30.30;;;16.70;;
23402;SDS011;11874;48.228;11.684;2023-02-11T21:14:13;26.25;;;15.82;;
23402;SDS011;11874;48.228;11.684;2023-02-11T21:16:43;28.33;;;16.35;;
23402;SDS011;11874;48.228;11.684;2023-02-11T21:19:11;29.30;;;16.83;;
23402;SDS011;11874;48.228;11.684;2023-02-11T21:21:39;25.08;;;15.23;;
23402;SDS011;11874;48.228;11.684;2023-02-11T21:24:08;23.23;;;14.18;;
23402;SDS011;11874;48.228;11.684;2023-02-11T21:26:37;23.20;;;14.20;;
23402;SDS011;11874;48.228;11.684;2023-02-11T21:29:06;25.35;;;15.60;;
23402;SDS011;11874;48.228;11.684;2023-02-11T21:31:34;27.13;;;15.60;;
23402;SDS011;11874;48.228;11.684;2023-02-11T21:34:03;24.65;;;15.05;;
23402;SDS011;11874;48.228;11.684;2023-02-11T21:36:31;27.48;;;15.57;;
23402;SDS011;11874;48.228;11.684;2023-02-11T21:38:59;24.58;;;14.68;;
23402;SDS011;11874;48.228;11.684;2023-02-11T21:41:30;27.20;;;15.45;;
23402;SDS011;11874;48.228;11.684;2023-02-11T21:43:58;27.05;;;14.85;;
23402;SDS011;11874;48.228;11.684;2023-02-11T21:46:26;22.23;;;14.15;;
23402;SDS011;11874;48.228;11.684;2023-02-11T21:48:54;21.83;;;13.50;;
23402;SDS011;11874;48.228;11.684;2023-02-11T21:51:24;20.42;;;13.15;;
23402;SDS011;11874;48.228;11.684;2023-02-11T21:53:53;21.40;;;13.57;;
23402;SDS011;11874;48.228;11.684;2023-02-11T21:56:22;22.88;;;12.85;;
23402;SDS011;11874;48.228;11.684;2023-02-11T21:58:53;19.60;;;12.80;;
23402;SDS011;11874;48.228;11.684;2023-02-11T22:01:22;19.60;;;12.50;;
23402;SDS011;11874;48.228;11.684;2023-02-11T22:03:52;25.10;;;15.15;;
23402;SDS011;11874;48.228;11.684;2023-02-11T22:06:21;22.33;;;13.50;;
23402;SDS011;11874;48.228;11.684;2023-02-11T22:08:51;21.80;;;13.20;;
23402;SDS011;11874;48.228;11.684;2023-02-11T22:11:19;22.13;;;13.88;;
23402;SDS011;11874;48.228;11.684;2023-02-11T22:13:51;21.05;;;13.25;;
